UUOO/VOZ METAR and TAF weather

Enter ICAO airport designator
Station Type Date Time Source
UUOO METAR 2019/04/20 18:00 UTC NOAA

UUOO 201800Z 00000MPS CAVOK 06/M09 Q1025 R30/090070 NOSIG RMK QFE755


Station Type Date Time Source
UUOO Decoded METAR 2019/04/20 18:00 UTC NOAA

Voronez, Russia (UUOO) 51-39N 039-15E 104M
Apr 20, 2019 - 02:00 PM EDT / 2019.04.20 1800 UTC
Wind: Calm:0
Visibility: greater than 7 mile(s):0
Temperature: 42 F (6 C)
Dew Point: 15 F (-9 C)
Relative Humidity: 33%
Pressure (altimeter): 30.27 in. Hg (1025 hPa)
ob: UUOO 201800Z 00000MPS CAVOK 06/M09 Q1025 R30/090070 NOSIG RMK QFE755
cycle: 18

Station Type Date Time Source
UUOO TAF 2018/12/04 17:51 UTC NOAA

TAF
AMD TAF
AMD UUOO 041549Z 0417/0524 14004MPS 0600 FZFG VV002
TEMPO 0418/0421 1400 FZDZ BR VV002

Example: see airport list